sensor_id;sensor_type;location;lat;lon;timestamp;temperature;humidity
6843;DHT22;3460;52.028;8.916;2024-02-23T00:00:54;8.80;99.90
6843;DHT22;3460;52.028;8.916;2024-02-23T00:03:21;8.80;99.90
6843;DHT22;3460;52.028;8.916;2024-02-23T00:05:48;8.70;99.90
6843;DHT22;3460;52.028;8.916;2024-02-23T00:08:14;8.70;99.90
6843;DHT22;3460;52.028;8.916;2024-02-23T00:10:41;8.80;99.90
6843;DHT22;3460;52.028;8.916;2024-02-23T00:13:08;8.80;99.90
6843;DHT22;3460;52.028;8.916;2024-02-23T00:15:36;8.70;99.90
6843;DHT22;3460;52.028;8.916;2024-02-23T00:18:04;8.70;99.90
6843;DHT22;3460;52.028;8.916;2024-02-23T00:20:32;8.80;99.90
6843;DHT22;3460;52.028;8.916;2024-02-23T00:22:59;8.70;99.90
6843;DHT22;3460;52.028;8.916;2024-02-23T00:25:25;8.60;99.90
6843;DHT22;3460;52.028;8.916;2024-02-23T00:27:52;8.60;99.90
6843;DHT22;3460;52.028;8.916;2024-02-23T00:30:19;8.60;99.90
6843;DHT22;3460;52.028;8.916;2024-02-23T00:32:47;8.50;99.90
6843;DHT22;3460;52.028;8.916;2024-02-23T00:35:14;8.50;99.90
6843;DHT22;3460;52.028;8.916;2024-02-23T00:37:41;8.50;99.90
6843;DHT22;3460;52.028;8.916;2024-02-23T00:40:09;8.40;99.90
6843;DHT22;3460;52.028;8.916;2024-02-23T00:42:36;8.30;99.90
6843;DHT22;3460;52.028;8.916;2024-02-23T00:45:04;8.30;1.00
6843;DHT22;3460;52.028;8.916;2024-02-23T00:47:31;8.20;1.00
6843;DHT22;3460;52.028;8.916;2024-02-23T00:49:59;8.10;1.00
6843;DHT22;3460;52.028;8.916;2024-02-23T00:52:26;8.00;1.00
6843;DHT22;3460;52.028;8.916;2024-02-23T00:54:53;7.90;95.70
6843;DHT22;3460;52.028;8.916;2024-02-23T00:57:19;7.80;1.00
6843;DHT22;3460;52.028;8.916;2024-02-23T00:59:52;7.80;99.90
6843;DHT22;3460;52.028;8.916;2024-02-23T01:02:19;7.60;99.90
6843;DHT22;3460;52.028;8.916;2024-02-23T01:04:46;7.60;99.90
6843;DHT22;3460;52.028;8.916;2024-02-23T01:07:14;7.50;1.00
6843;DHT22;3460;52.028;8.916;2024-02-23T01:09:41;7.50;63.90
6843;DHT22;3460;52.028;8.916;2024-02-23T01:12:08;7.50;99.90
6843;DHT22;3460;52.028;8.916;2024-02-23T01:14:34;7.40;99.90
6843;DHT22;3460;52.028;8.916;2024-02-23T01:17:01;7.30;1.00
6843;DHT22;3460;52.028;8.916;2024-02-23T01:19:28;7.20;1.00
6843;DHT22;3460;52.028;8.916;2024-02-23T01:21:55;7.10;1.00
6843;DHT22;3460;52.028;8.916;2024-02-23T01:24:26;7.10;1.00
6843;DHT22;3460;52.028;8.916;2024-02-23T01:26:55;7.10;1.00
6843;DHT22;3460;52.028;8.916;2024-02-23T01:29:23;7.00;1.00
6843;DHT22;3460;52.028;8.916;2024-02-23T01:31:50;6.90;1.00
6843;DHT22;3460;52.028;8.916;2024-02-23T01:34:17;6.80;99.90
6843;DHT22;3460;52.028;8.916;2024-02-23T01:36:44;6.70;99.90
6843;DHT22;3460;52.028;8.916;2024-02-23T01:39:11;6.60;1.00
6843;DHT22;3460;52.028;8.916;2024-02-23T01:41:39;6.60;1.00
6843;DHT22;3460;52.028;8.916;2024-02-23T01:44:06;6.60;1.00
6843;DHT22;3460;52.028;8.916;2024-02-23T01:46:33;6.50;1.00
6843;DHT22;3460;52.028;8.916;2024-02-23T01:48:59;6.40;1.00
6843;DHT22;3460;52.028;8.916;2024-02-23T01:51:26;6.40;1.00
6843;DHT22;3460;52.028;8.916;2024-02-23T01:53:53;6.30;99.90
6843;DHT22;3460;52.028;8.916;2024-02-23T01:56:20;6.20;99.90
6843;DHT22;3460;52.028;8.916;2024-02-23T01:58:49;6.10;1.00
6843;DHT22;3460;52.028;8.916;2024-02-23T02:01:16;5.90;99.90
6843;DHT22;3460;52.028;8.916;2024-02-23T02:03:43;5.90;99.90
6843;DHT22;3460;52.028;8.916;2024-02-23T02:06:10;5.90;1.00
6843;DHT22;3460;52.028;8.916;2024-02-23T02:08:38;5.90;1.00
6843;DHT22;3460;52.028;8.916;2024-02-23T02:11:05;5.90;1.00
6843;DHT22;3460;52.028;8.916;2024-02-23T02:13:31;5.90;1.00
6843;DHT22;3460;52.028;8.916;2024-02-23T02:16:00;5.90;99.90
6843;DHT22;3460;52.028;8.916;2024-02-23T02:18:28;5.90;99.90
6843;DHT22;3460;52.028;8.916;2024-02-23T02:20:56;5.90;99.90
6843;DHT22;3460;52.028;8.916;2024-02-23T02:23:23;6.00;36.40
6843;DHT22;3460;52.028;8.916;2024-02-23T02:25:52;6.00;1.00
6843;DHT22;3460;52.028;8.916;2024-02-23T02:28:20;6.00;26.40
6843;DHT22;3460;52.028;8.916;2024-02-23T02:30:47;6.00;1.00
6843;DHT22;3460;52.028;8.916;2024-02-23T02:33:15;6.00;99.90
6843;DHT22;3460;52.028;8.916;2024-02-23T02:35:42;6.00;1.00
6843;DHT22;3460;52.028;8.916;2024-02-23T02:38:09;5.90;1.00
6843;DHT22;3460;52.028;8.916;2024-02-23T02:40:36;5.90;99.90
6843;DHT22;3460;52.028;8.916;2024-02-23T02:43:04;6.00;99.90
6843;DHT22;3460;52.028;8.916;2024-02-23T02:45:31;6.00;99.90
6843;DHT22;3460;52.028;8.916;2024-02-23T02:47:59;6.10;99.90
6843;DHT22;3460;52.028;8.916;2024-02-23T02:50:27;6.10;99.90
6843;DHT22;3460;52.028;8.916;2024-02-23T02:52:54;6.00;99.90
6843;DHT22;3460;52.028;8.916;2024-02-23T02:55:21;6.00;92.70
6843;DHT22;3460;52.028;8.916;2024-02-23T02:57:48;5.90;99.90
6843;DHT22;3460;52.028;8.916;2024-02-23T03:00:15;5.90;99.90
6843;DHT22;3460;52.028;8.916;2024-02-23T03:02:42;5.90;99.90
6843;DHT22;3460;52.028;8.916;2024-02-23T03:05:09;5.80;1.00
6843;DHT22;3460;52.028;8.916;2024-02-23T03:07:37;5.80;99.90
6843;DHT22;3460;52.028;8.916;2024-02-23T03:10:05;5.80;99.90
6843;DHT22;3460;52.028;8.916;2024-02-23T03:12:32;5.80;99.90
6843;DHT22;3460;52.028;8.916;2024-02-23T03:14:59;5.80;99.90
6843;DHT22;3460;52.028;8.916;2024-02-23T03:17:26;5.90;99.90
6843;DHT22;3460;52.028;8.916;2024-02-23T03:19:52;5.90;1.00
6843;DHT22;3460;52.028;8.916;2024-02-23T03:22:19;5.90;1.00
6843;DHT22;3460;52.028;8.916;2024-02-23T03:24:47;5.90;99.90
6843;DHT22;3460;52.028;8.916;2024-02-23T03:27:14;6.00;99.90
6843;DHT22;3460;52.028;8.916;2024-02-23T03:29:41;6.00;79.90
6843;DHT22;3460;52.028;8.916;2024-02-23T03:32:08;5.90;1.00
6843;DHT22;3460;52.028;8.916;2024-02-23T03:34:35;6.00;1.00
6843;DHT22;3460;52.028;8.916;2024-02-23T03:37:02;5.90;99.90
6843;DHT22;3460;52.028;8.916;2024-02-23T03:39:29;6.00;62.00
6843;DHT22;3460;52.028;8.916;2024-02-23T03:41:59;5.90;92.00
6843;DHT22;3460;52.028;8.916;2024-02-23T03:44:25;6.00;1.00
6843;DHT22;3460;52.028;8.916;2024-02-23T03:46:52;6.00;98.60
6843;DHT22;3460;52.028;8.916;2024-02-23T03:49:19;6.00;1.00
6843;DHT22;3460;52.028;8.916;2024-02-23T03:51:46;6.10;1.00
6843;DHT22;3460;52.028;8.916;2024-02-23T03:54:13;6.20;1.00
6843;DHT22;3460;52.028;8.916;2024-02-23T03:56:40;6.20;1.00
6843;DHT22;3460;52.028;8.916;2024-02-23T03:59:09;6.10;99.90
6843;DHT22;3460;52.028;8.916;2024-02-23T04:01:36;6.10;99.90
6843;DHT22;3460;52.028;8.916;2024-02-23T04:04:03;6.10;1.00
6843;DHT22;3460;52.028;8.916;2024-02-23T04:06:30;6.20;99.90
6843;DHT22;3460;52.028;8.916;2024-02-23T04:08:57;6.20;1.00
6843;DHT22;3460;52.028;8.916;2024-02-23T04:11:24;6.10;1.00
6843;DHT22;3460;52.028;8.916;2024-02-23T04:13:51;6.20;1.00
6843;DHT22;3460;52.028;8.916;2024-02-23T04:16:22;6.20;99.90
6843;DHT22;3460;52.028;8.916;2024-02-23T04:18:49;6.20;35.20
6843;DHT22;3460;52.028;8.916;2024-02-23T04:21:16;6.20;99.90
6843;DHT22;3460;52.028;8.916;2024-02-23T04:23:43;6.20;99.90
6843;DHT22;3460;52.028;8.916;2024-02-23T04:26:10;6.10;99.90
6843;DHT22;3460;52.028;8.916;2024-02-23T04:28:38;6.20;99.90
6843;DHT22;3460;52.028;8.916;2024-02-23T04:31:04;6.10;99.90
6843;DHT22;3460;52.028;8.916;2024-02-23T04:33:34;6.10;99.90
6843;DHT22;3460;52.028;8.916;2024-02-23T04:36:01;6.10;72.40
6843;DHT22;3460;52.028;8.916;2024-02-23T04:38:28;6.10;1.00
6843;DHT22;3460;52.028;8.916;2024-02-23T04:40:55;6.10;4.40
6843;DHT22;3460;52.028;8.916;2024-02-23T04:43:23;6.20;1.00
6843;DHT22;3460;52.028;8.916;2024-02-23T04:45:50;6.20;1.00
6843;DHT22;3460;52.028;8.916;2024-02-23T04:48:17;6.10;1.00
6843;DHT22;3460;52.028;8.916;2024-02-23T04:50:45;6.10;1.00
6843;DHT22;3460;52.028;8.916;2024-02-23T04:53:12;6.10;1.00
6843;DHT22;3460;52.028;8.916;2024-02-23T04:55:39;6.10;1.00
6843;DHT22;3460;52.028;8.916;2024-02-23T04:58:06;6.10;1.00
6843;DHT22;3460;52.028;8.916;2024-02-23T05:00:33;6.00;1.00
6843;DHT22;3460;52.028;8.916;2024-02-23T05:03:00;6.10;1.00
6843;DHT22;3460;52.028;8.916;2024-02-23T05:05:29;6.10;1.00
6843;DHT22;3460;52.028;8.916;2024-02-23T05:07:57;6.00;1.00
6843;DHT22;3460;52.028;8.916;2024-02-23T05:10:24;6.10;1.00
6843;DHT22;3460;52.028;8.916;2024-02-23T05:12:51;6.10;1.00
6843;DHT22;3460;52.028;8.916;2024-02-23T05:15:17;6.10;1.00
6843;DHT22;3460;52.028;8.916;2024-02-23T05:17:44;6.10;1.00
6843;DHT22;3460;52.028;8.916;2024-02-23T05:20:12;6.10;1.00
6843;DHT22;3460;52.028;8.916;2024-02-23T05:22:39;6.10;1.00
6843;DHT22;3460;52.028;8.916;2024-02-23T05:25:08;6.10;1.00
6843;DHT22;3460;52.028;8.916;2024-02-23T05:27:34;6.00;1.00
6843;DHT22;3460;52.028;8.916;2024-02-23T05:30:01;6.10;1.00
6843;DHT22;3460;52.028;8.916;2024-02-23T05:32:28;6.10;1.00
6843;DHT22;3460;52.028;8.916;2024-02-23T05:34:55;6.10;1.00
6843;DHT22;3460;52.028;8.916;2024-02-23T05:37:22;6.10;1.00
6843;DHT22;3460;52.028;8.916;2024-02-23T05:39:49;6.10;1.00
6843;DHT22;3460;52.028;8.916;2024-02-23T05:42:17;6.10;1.00
6843;DHT22;3460;52.028;8.916;2024-02-23T05:44:44;6.10;99.90
6843;DHT22;3460;52.028;8.916;2024-02-23T05:47:11;6.00;1.00
6843;DHT22;3460;52.028;8.916;2024-02-23T05:49:39;6.10;1.00
6843;DHT22;3460;52.028;8.916;2024-02-23T05:52:06;6.10;1.00
6843;DHT22;3460;52.028;8.916;2024-02-23T05:54:33;6.20;1.00
6843;DHT22;3460;52.028;8.916;2024-02-23T05:56:59;6.10;1.00
6843;DHT22;3460;52.028;8.916;2024-02-23T05:59:28;6.20;1.00
6843;DHT22;3460;52.028;8.916;2024-02-23T06:01:54;6.10;1.00
6843;DHT22;3460;52.028;8.916;2024-02-23T06:04:22;6.10;1.00
6843;DHT22;3460;52.028;8.916;2024-02-23T06:06:49;6.10;1.00
6843;DHT22;3460;52.028;8.916;2024-02-23T06:09:16;6.10;1.00
6843;DHT22;3460;52.028;8.916;2024-02-23T06:11:42;6.00;1.00
6843;DHT22;3460;52.028;8.916;2024-02-23T06:14:09;6.00;1.00
6843;DHT22;3460;52.028;8.916;2024-02-23T06:16:38;6.10;1.00
6843;DHT22;3460;52.028;8.916;2024-02-23T06:19:06;6.10;1.00
6843;DHT22;3460;52.028;8.916;2024-02-23T06:21:32;6.10;1.00
6843;DHT22;3460;52.028;8.916;2024-02-23T06:23:59;6.10;1.00
6843;DHT22;3460;52.028;8.916;2024-02-23T06:26:26;6.10;1.00
6843;DHT22;3460;52.028;8.916;2024-02-23T06:28:53;6.10;1.00
6843;DHT22;3460;52.028;8.916;2024-02-23T06:31:19;6.10;1.00
6843;DHT22;3460;52.028;8.916;2024-02-23T06:33:48;6.10;1.00
6843;DHT22;3460;52.028;8.916;2024-02-23T06:36:16;6.10;1.00
6843;DHT22;3460;52.028;8.916;2024-02-23T06:38:43;6.10;1.00
6843;DHT22;3460;52.028;8.916;2024-02-23T06:41:11;6.10;1.00
6843;DHT22;3460;52.028;8.916;2024-02-23T06:43:38;6.10;1.00
6843;DHT22;3460;52.028;8.916;2024-02-23T06:46:06;6.00;1.00
6843;DHT22;3460;52.028;8.916;2024-02-23T06:48:33;6.10;1.00
6843;DHT22;3460;52.028;8.916;2024-02-23T06:51:02;6.10;1.00
6843;DHT22;3460;52.028;8.916;2024-02-23T06:53:29;6.10;1.00
6843;DHT22;3460;52.028;8.916;2024-02-23T06:55:58;6.10;1.00
6843;DHT22;3460;52.028;8.916;2024-02-23T06:58:27;6.10;99.90
6843;DHT22;3460;52.028;8.916;2024-02-23T07:00:54;6.10;1.00
6843;DHT22;3460;52.028;8.916;2024-02-23T07:03:21;6.10;1.00
6843;DHT22;3460;52.028;8.916;2024-02-23T07:05:48;6.10;1.00
6843;DHT22;3460;52.028;8.916;2024-02-23T07:08:17;6.10;1.00
6843;DHT22;3460;52.028;8.916;2024-02-23T07:10:45;6.10;1.00
6843;DHT22;3460;52.028;8.916;2024-02-23T07:13:12;6.10;1.00
6843;DHT22;3460;52.028;8.916;2024-02-23T07:15:39;6.20;99.90
6843;DHT22;3460;52.028;8.916;2024-02-23T07:18:06;6.20;99.90
6843;DHT22;3460;52.028;8.916;2024-02-23T07:20:35;6.10;1.00
6843;DHT22;3460;52.028;8.916;2024-02-23T07:23:02;6.10;99.90
6843;DHT22;3460;52.028;8.916;2024-02-23T07:25:30;6.20;99.90
6843;DHT22;3460;52.028;8.916;2024-02-23T07:27:57;6.10;1.00
6843;DHT22;3460;52.028;8.916;2024-02-23T07:30:24;6.20;99.90
6843;DHT22;3460;52.028;8.916;2024-02-23T07:32:51;6.20;1.00
6843;DHT22;3460;52.028;8.916;2024-02-23T07:35:17;6.20;1.00
6843;DHT22;3460;52.028;8.916;2024-02-23T07:37:44;6.30;99.90
6843;DHT22;3460;52.028;8.916;2024-02-23T07:40:12;6.30;99.90
6843;DHT22;3460;52.028;8.916;2024-02-23T07:42:40;6.30;99.90
6843;DHT22;3460;52.028;8.916;2024-02-23T07:45:07;6.30;99.90
6843;DHT22;3460;52.028;8.916;2024-02-23T07:47:34;6.20;99.90
6843;DHT22;3460;52.028;8.916;2024-02-23T07:50:01;6.20;99.90
6843;DHT22;3460;52.028;8.916;2024-02-23T07:52:28;6.10;99.90
6843;DHT22;3460;52.028;8.916;2024-02-23T07:54:55;6.20;99.90
6843;DHT22;3460;52.028;8.916;2024-02-23T07:57:22;6.30;99.90
6843;DHT22;3460;52.028;8.916;2024-02-23T07:59:50;6.30;99.90
6843;DHT22;3460;52.028;8.916;2024-02-23T08:02:17;6.30;99.90
6843;DHT22;3460;52.028;8.916;2024-02-23T08:04:43;6.30;99.90
6843;DHT22;3460;52.028;8.916;2024-02-23T08:07:13;6.30;99.90
6843;DHT22;3460;52.028;8.916;2024-02-23T08:09:40;6.20;99.90
6843;DHT22;3460;52.028;8.916;2024-02-23T08:12:07;6.20;99.90
6843;DHT22;3460;52.028;8.916;2024-02-23T08:14:34;6.20;99.90
6843;DHT22;3460;52.028;8.916;2024-02-23T08:17:02;6.20;99.90
6843;DHT22;3460;52.028;8.916;2024-02-23T08:19:29;6.10;99.90
6843;DHT22;3460;52.028;8.916;2024-02-23T08:21:56;6.10;99.90
6843;DHT22;3460;52.028;8.916;2024-02-23T08:24:22;6.20;71.90
6843;DHT22;3460;52.028;8.916;2024-02-23T08:26:50;6.20;99.90
6843;DHT22;3460;52.028;8.916;2024-02-23T08:29:16;6.30;53.30
6843;DHT22;3460;52.028;8.916;2024-02-23T08:31:43;6.20;91.40
6843;DHT22;3460;52.028;8.916;2024-02-23T08:34:11;6.40;46.50
6843;DHT22;3460;52.028;8.916;2024-02-23T08:36:38;6.40;1.00
6843;DHT22;3460;52.028;8.916;2024-02-23T08:39:05;6.30;49.90
6843;DHT22;3460;52.028;8.916;2024-02-23T08:41:33;6.40;70.10
6843;DHT22;3460;52.028;8.916;2024-02-23T08:44:00;6.30;72.40
6843;DHT22;3460;52.028;8.916;2024-02-23T08:46:26;6.30;90.90
6843;DHT22;3460;52.028;8.916;2024-02-23T08:48:53;6.40;1.00
6843;DHT22;3460;52.028;8.916;2024-02-23T08:51:21;6.50;1.00
6843;DHT22;3460;52.028;8.916;2024-02-23T08:53:48;6.50;1.00
6843;DHT22;3460;52.028;8.916;2024-02-23T08:56:15;6.50;1.00
6843;DHT22;3460;52.028;8.916;2024-02-23T08:58:42;6.60;1.00
6843;DHT22;3460;52.028;8.916;2024-02-23T09:01:09;6.60;1.00
6843;DHT22;3460;52.028;8.916;2024-02-23T09:03:35;6.60;1.00
6843;DHT22;3460;52.028;8.916;2024-02-23T09:06:03;6.60;1.00
6843;DHT22;3460;52.028;8.916;2024-02-23T09:08:31;6.90;1.00
6843;DHT22;3460;52.028;8.916;2024-02-23T09:10:58;7.00;1.00
6843;DHT22;3460;52.028;8.916;2024-02-23T09:13:24;7.00;99.90
6843;DHT22;3460;52.028;8.916;2024-02-23T09:15:52;7.00;99.90
6843;DHT22;3460;52.028;8.916;2024-02-23T09:18:18;7.20;99.90
6843;DHT22;3460;52.028;8.916;2024-02-23T09:20:45;7.20;99.90
6843;DHT22;3460;52.028;8.916;2024-02-23T09:23:12;7.10;99.90
6843;DHT22;3460;52.028;8.916;2024-02-23T09:25:40;7.30;99.90
6843;DHT22;3460;52.028;8.916;2024-02-23T09:28:08;7.30;99.90
6843;DHT22;3460;52.028;8.916;2024-02-23T09:30:36;7.30;99.90
6843;DHT22;3460;52.028;8.916;2024-02-23T09:33:04;7.40;99.90
6843;DHT22;3460;52.028;8.916;2024-02-23T09:35:31;7.30;99.90
6843;DHT22;3460;52.028;8.916;2024-02-23T09:37:57;7.30;99.90
6843;DHT22;3460;52.028;8.916;2024-02-23T09:40:24;7.30;99.90
6843;DHT22;3460;52.028;8.916;2024-02-23T09:42:56;7.30;42.70
6843;DHT22;3460;52.028;8.916;2024-02-23T09:45:24;7.30;43.60
6843;DHT22;3460;52.028;8.916;2024-02-23T09:47:52;7.30;99.90
6843;DHT22;3460;52.028;8.916;2024-02-23T09:50:21;7.30;49.00
6843;DHT22;3460;52.028;8.916;2024-02-23T09:52:49;7.20;99.90
6843;DHT22;3460;52.028;8.916;2024-02-23T09:55:16;7.30;28.00
6843;DHT22;3460;52.028;8.916;2024-02-23T09:57:44;7.40;18.30
6843;DHT22;3460;52.028;8.916;2024-02-23T10:00:15;7.30;1.00
6843;DHT22;3460;52.028;8.916;2024-02-23T10:02:43;7.40;1.00
6843;DHT22;3460;52.028;8.916;2024-02-23T10:05:10;7.40;1.00
6843;DHT22;3460;52.028;8.916;2024-02-23T10:07:38;7.50;1.00
6843;DHT22;3460;52.028;8.916;2024-02-23T10:10:07;7.60;1.00
6843;DHT22;3460;52.028;8.916;2024-02-23T10:12:34;7.60;1.00
6843;DHT22;3460;52.028;8.916;2024-02-23T10:15:00;7.70;1.00
6843;DHT22;3460;52.028;8.916;2024-02-23T10:17:30;7.80;1.00
6843;DHT22;3460;52.028;8.916;2024-02-23T10:19:58;7.80;1.00
6843;DHT22;3460;52.028;8.916;2024-02-23T10:22:30;7.90;1.00
6843;DHT22;3460;52.028;8.916;2024-02-23T10:24:57;7.90;1.00
6843;DHT22;3460;52.028;8.916;2024-02-23T10:27:24;7.90;1.00
6843;DHT22;3460;52.028;8.916;2024-02-23T10:29:51;8.10;1.00
6843;DHT22;3460;52.028;8.916;2024-02-23T10:32:20;8.00;99.90
6843;DHT22;3460;52.028;8.916;2024-02-23T10:34:49;8.10;99.90
6843;DHT22;3460;52.028;8.916;2024-02-23T10:37:16;8.00;99.90
6843;DHT22;3460;52.028;8.916;2024-02-23T10:39:43;8.00;99.90
6843;DHT22;3460;52.028;8.916;2024-02-23T10:42:12;8.00;99.90
6843;DHT22;3460;52.028;8.916;2024-02-23T10:44:42;7.90;99.90
6843;DHT22;3460;52.028;8.916;2024-02-23T10:47:09;8.00;99.90
6843;DHT22;3460;52.028;8.916;2024-02-23T10:49:38;8.00;99.90
6843;DHT22;3460;52.028;8.916;2024-02-23T10:52:07;8.00;99.90
6843;DHT22;3460;52.028;8.916;2024-02-23T10:54:38;8.00;99.90
6843;DHT22;3460;52.028;8.916;2024-02-23T10:57:06;8.10;99.90
6843;DHT22;3460;52.028;8.916;2024-02-23T10:59:33;8.10;99.90
6843;DHT22;3460;52.028;8.916;2024-02-23T11:02:00;8.10;99.90
6843;DHT22;3460;52.028;8.916;2024-02-23T11:04:28;8.10;99.90
6843;DHT22;3460;52.028;8.916;2024-02-23T11:06:56;8.10;99.90
6843;DHT22;3460;52.028;8.916;2024-02-23T11:09:26;8.20;99.90
6843;DHT22;3460;52.028;8.916;2024-02-23T11:11:53;8.20;99.90
6843;DHT22;3460;52.028;8.916;2024-02-23T11:14:29;8.20;99.90
6843;DHT22;3460;52.028;8.916;2024-02-23T11:16:57;8.20;99.90
6843;DHT22;3460;52.028;8.916;2024-02-23T11:19:32;8.20;99.90
6843;DHT22;3460;52.028;8.916;2024-02-23T11:21:59;8.30;99.90
6843;DHT22;3460;52.028;8.916;2024-02-23T11:24:28;8.30;99.90
6843;DHT22;3460;52.028;8.916;2024-02-23T11:26:56;8.40;99.90
6843;DHT22;3460;52.028;8.916;2024-02-23T11:29:26;8.50;99.90
6843;DHT22;3460;52.028;8.916;2024-02-23T11:31:53;8.50;99.90
6843;DHT22;3460;52.028;8.916;2024-02-23T11:34:26;8.50;99.90
6843;DHT22;3460;52.028;8.916;2024-02-23T11:36:53;8.60;99.90
6843;DHT22;3460;52.028;8.916;2024-02-23T11:39:22;8.60;99.90
6843;DHT22;3460;52.028;8.916;2024-02-23T11:41:50;8.60;99.90
6843;DHT22;3460;52.028;8.916;2024-02-23T11:44:17;8.60;99.90
6843;DHT22;3460;52.028;8.916;2024-02-23T11:46:44;8.70;99.90
6843;DHT22;3460;52.028;8.916;2024-02-23T11:49:12;8.70;99.90
6843;DHT22;3460;52.028;8.916;2024-02-23T11:51:39;8.80;74.60
6843;DHT22;3460;52.028;8.916;2024-02-23T11:54:06;8.70;43.20
6843;DHT22;3460;52.028;8.916;2024-02-23T11:56:33;8.80;47.00
6843;DHT22;3460;52.028;8.916;2024-02-23T11:59:01;8.90;47.00
6843;DHT22;3460;52.028;8.916;2024-02-23T12:01:29;8.90;42.60
6843;DHT22;3460;52.028;8.916;2024-02-23T12:03:57;9.00;40.50
6843;DHT22;3460;52.028;8.916;2024-02-23T12:06:24;8.90;10.00
6843;DHT22;3460;52.028;8.916;2024-02-23T12:08:54;8.90;1.00
6843;DHT22;3460;52.028;8.916;2024-02-23T12:11:21;9.00;2.90
6843;DHT22;3460;52.028;8.916;2024-02-23T12:13:48;8.90;1.00
6843;DHT22;3460;52.028;8.916;2024-02-23T12:16:18;8.90;6.00
6843;DHT22;3460;52.028;8.916;2024-02-23T12:18:44;8.90;16.50
6843;DHT22;3460;52.028;8.916;2024-02-23T12:21:11;9.00;29.80
6843;DHT22;3460;52.028;8.916;2024-02-23T12:23:40;9.00;34.30
6843;DHT22;3460;52.028;8.916;2024-02-23T12:26:07;9.00;38.30
6843;DHT22;3460;52.028;8.916;2024-02-23T12:28:34;9.10;20.00
6843;DHT22;3460;52.028;8.916;2024-02-23T12:31:02;9.10;1.00
6843;DHT22;3460;52.028;8.916;2024-02-23T12:33:31;9.00;1.00
6843;DHT22;3460;52.028;8.916;2024-02-23T12:36:00;9.00;1.00
6843;DHT22;3460;52.028;8.916;2024-02-23T12:38:27;9.00;1.00
6843;DHT22;3460;52.028;8.916;2024-02-23T12:40:54;8.90;1.00
6843;DHT22;3460;52.028;8.916;2024-02-23T12:43:21;8.90;1.00
6843;DHT22;3460;52.028;8.916;2024-02-23T12:45:49;8.80;1.00
6843;DHT22;3460;52.028;8.916;2024-02-23T12:48:17;8.80;1.00
6843;DHT22;3460;52.028;8.916;2024-02-23T12:50:45;8.80;9.00
6843;DHT22;3460;52.028;8.916;2024-02-23T12:53:30;8.90;17.50
6843;DHT22;3460;52.028;8.916;2024-02-23T12:55:58;8.90;1.00
6843;DHT22;3460;52.028;8.916;2024-02-23T12:58:24;8.90;11.50
6843;DHT22;3460;52.028;8.916;2024-02-23T13:00:51;8.90;28.40
6843;DHT22;3460;52.028;8.916;2024-02-23T13:03:18;9.00;23.80
6843;DHT22;3460;52.028;8.916;2024-02-23T13:05:46;9.00;2.60
6843;DHT22;3460;52.028;8.916;2024-02-23T13:08:13;9.00;5.10
6843;DHT22;3460;52.028;8.916;2024-02-23T13:10:40;9.00;1.00
6843;DHT22;3460;52.028;8.916;2024-02-23T13:13:07;9.10;1.00
6843;DHT22;3460;52.028;8.916;2024-02-23T13:15:34;9.00;1.00
6843;DHT22;3460;52.028;8.916;2024-02-23T13:18:02;8.90;1.00
6843;DHT22;3460;52.028;8.916;2024-02-23T13:20:29;8.90;1.00
6843;DHT22;3460;52.028;8.916;2024-02-23T13:22:57;8.90;4.80
6843;DHT22;3460;52.028;8.916;2024-02-23T13:25:24;8.90;24.80
6843;DHT22;3460;52.028;8.916;2024-02-23T13:27:50;8.90;33.60
6843;DHT22;3460;52.028;8.916;2024-02-23T13:30:18;8.90;30.90
6843;DHT22;3460;52.028;8.916;2024-02-23T13:32:45;8.90;30.20
6843;DHT22;3460;52.028;8.916;2024-02-23T13:35:11;9.00;9.10
6843;DHT22;3460;52.028;8.916;2024-02-23T13:37:39;9.10;17.30
6843;DHT22;3460;52.028;8.916;2024-02-23T13:40:09;9.10;1.00
6843;DHT22;3460;52.028;8.916;2024-02-23T13:42:36;9.20;14.30
6843;DHT22;3460;52.028;8.916;2024-02-23T13:45:05;9.10;8.30
6843;DHT22;3460;52.028;8.916;2024-02-23T13:47:32;9.10;1.00
6843;DHT22;3460;52.028;8.916;2024-02-23T13:49:59;9.10;9.10
6843;DHT22;3460;52.028;8.916;2024-02-23T13:52:26;9.10;1.00
6843;DHT22;3460;52.028;8.916;2024-02-23T13:54:53;9.10;1.00
6843;DHT22;3460;52.028;8.916;2024-02-23T13:57:22;9.10;1.00
6843;DHT22;3460;52.028;8.916;2024-02-23T13:59:49;9.20;1.00
6843;DHT22;3460;52.028;8.916;2024-02-23T14:02:16;9.20;1.00
6843;DHT22;3460;52.028;8.916;2024-02-23T14:04:44;9.10;1.00
6843;DHT22;3460;52.028;8.916;2024-02-23T14:07:13;9.10;1.00
6843;DHT22;3460;52.028;8.916;2024-02-23T14:09:39;9.10;1.00
6843;DHT22;3460;52.028;8.916;2024-02-23T14:12:07;9.10;1.00
6843;DHT22;3460;52.028;8.916;2024-02-23T14:14:35;9.10;1.00
6843;DHT22;3460;52.028;8.916;2024-02-23T14:17:02;9.10;1.00
6843;DHT22;3460;52.028;8.916;2024-02-23T14:19:29;9.00;1.00
6843;DHT22;3460;52.028;8.916;2024-02-23T14:21:56;9.10;1.00
6843;DHT22;3460;52.028;8.916;2024-02-23T14:24:23;9.00;1.00
6843;DHT22;3460;52.028;8.916;2024-02-23T14:26:49;9.00;1.00
6843;DHT22;3460;52.028;8.916;2024-02-23T14:29:16;9.00;1.00
6843;DHT22;3460;52.028;8.916;2024-02-23T14:31:44;9.00;1.00
6843;DHT22;3460;52.028;8.916;2024-02-23T14:34:11;9.10;1.00
6843;DHT22;3460;52.028;8.916;2024-02-23T14:36:38;9.10;1.00
6843;DHT22;3460;52.028;8.916;2024-02-23T14:39:05;9.10;1.00
6843;DHT22;3460;52.028;8.916;2024-02-23T14:41:31;9.10;1.00
6843;DHT22;3460;52.028;8.916;2024-02-23T14:43:58;9.00;1.00
6843;DHT22;3460;52.028;8.916;2024-02-23T14:46:25;9.00;1.00
6843;DHT22;3460;52.028;8.916;2024-02-23T14:48:53;9.00;1.00
6843;DHT22;3460;52.028;8.916;2024-02-23T14:51:20;9.00;1.00
6843;DHT22;3460;52.028;8.916;2024-02-23T14:53:47;9.00;1.00
6843;DHT22;3460;52.028;8.916;2024-02-23T14:56:14;9.00;1.00
6843;DHT22;3460;52.028;8.916;2024-02-23T14:58:41;9.00;1.00
6843;DHT22;3460;52.028;8.916;2024-02-23T15:01:07;9.00;1.00
6843;DHT22;3460;52.028;8.916;2024-02-23T15:03:35;8.90;1.00
6843;DHT22;3460;52.028;8.916;2024-02-23T15:06:03;8.90;1.00
6843;DHT22;3460;52.028;8.916;2024-02-23T15:08:30;8.90;1.00
6843;DHT22;3460;52.028;8.916;2024-02-23T15:10:57;8.90;1.00
6843;DHT22;3460;52.028;8.916;2024-02-23T15:13:23;8.90;1.00
6843;DHT22;3460;52.028;8.916;2024-02-23T15:15:50;8.90;5.00
6843;DHT22;3460;52.028;8.916;2024-02-23T15:18:17;8.90;1.00
6843;DHT22;3460;52.028;8.916;2024-02-23T15:20:44;8.90;1.50
6843;DHT22;3460;52.028;8.916;2024-02-23T15:23:13;8.90;16.20
6843;DHT22;3460;52.028;8.916;2024-02-23T15:25:40;8.90;28.90
6843;DHT22;3460;52.028;8.916;2024-02-23T15:28:06;8.90;21.90
6843;DHT22;3460;52.028;8.916;2024-02-23T15:30:33;8.90;27.60
6843;DHT22;3460;52.028;8.916;2024-02-23T15:33:00;8.90;39.50
6843;DHT22;3460;52.028;8.916;2024-02-23T15:35:27;8.90;46.70
6843;DHT22;3460;52.028;8.916;2024-02-23T15:37:55;8.80;53.40
6843;DHT22;3460;52.028;8.916;2024-02-23T15:40:23;8.80;97.00
6843;DHT22;3460;52.028;8.916;2024-02-23T15:42:50;8.80;32.30
6843;DHT22;3460;52.028;8.916;2024-02-23T15:45:17;8.80;41.90
6843;DHT22;3460;52.028;8.916;2024-02-23T15:47:44;8.80;38.30
6843;DHT22;3460;52.028;8.916;2024-02-23T15:50:11;8.80;50.40
6843;DHT22;3460;52.028;8.916;2024-02-23T15:52:38;8.90;17.50
6843;DHT22;3460;52.028;8.916;2024-02-23T15:55:06;8.90;32.60
6843;DHT22;3460;52.028;8.916;2024-02-23T15:57:38;8.90;22.80
6843;DHT22;3460;52.028;8.916;2024-02-23T16:00:05;8.90;10.70
6843;DHT22;3460;52.028;8.916;2024-02-23T16:02:35;8.90;21.60
6843;DHT22;3460;52.028;8.916;2024-02-23T16:05:03;8.90;27.80
6843;DHT22;3460;52.028;8.916;2024-02-23T16:07:32;8.90;36.10
6843;DHT22;3460;52.028;8.916;2024-02-23T16:10:00;8.80;11.60
6843;DHT22;3460;52.028;8.916;2024-02-23T16:12:26;8.80;26.10
6843;DHT22;3460;52.028;8.916;2024-02-23T16:14:55;8.80;26.10
6843;DHT22;3460;52.028;8.916;2024-02-23T16:17:22;8.80;52.70
6843;DHT22;3460;52.028;8.916;2024-02-23T16:19:48;8.80;42.40
6843;DHT22;3460;52.028;8.916;2024-02-23T16:22:15;8.80;47.40
6843;DHT22;3460;52.028;8.916;2024-02-23T16:24:42;8.80;56.40
6843;DHT22;3460;52.028;8.916;2024-02-23T16:27:10;8.70;94.60